createdAt,value
2018-08-17T00:00:35.687Z,2.53
2018-08-17T00:03:04.606Z,2.63
2018-08-17T00:05:33.574Z,2.80
2018-08-17T00:08:02.389Z,2.70
2018-08-17T00:10:31.185Z,2.80
2018-08-17T00:13:00.262Z,2.47
2018-08-17T00:15:29.046Z,2.70
2018-08-17T00:17:57.974Z,2.23
2018-08-17T00:20:27.181Z,2.60
2018-08-17T00:22:56.140Z,2.67
2018-08-17T00:25:25.189Z,2.73
2018-08-17T00:27:54.180Z,2.40
2018-08-17T00:30:22.928Z,2.40
2018-08-17T00:32:51.794Z,2.63
2018-08-17T00:35:20.448Z,2.63
2018-08-17T00:37:49.119Z,2.60
2018-08-17T00:40:18.076Z,2.57
2018-08-17T00:42:46.992Z,2.87
2018-08-17T00:45:15.592Z,2.40
2018-08-17T00:47:44.538Z,2.77
2018-08-17T00:50:13.326Z,2.23
2018-08-17T00:52:42.323Z,2.53
2018-08-17T00:55:11.317Z,2.23
2018-08-17T00:57:40.495Z,2.77
2018-08-17T01:00:09.719Z,2.77
2018-08-17T01:02:38.768Z,2.53
2018-08-17T01:05:07.496Z,2.73
2018-08-17T01:07:36.294Z,2.70
2018-08-17T01:10:05.595Z,2.67
2018-08-17T01:12:34.340Z,2.50
2018-08-17T01:15:03.303Z,2.30
2018-08-17T01:17:31.942Z,2.30
2018-08-17T01:20:00.633Z,2.70
2018-08-17T01:22:29.993Z,2.60
2018-08-17T01:24:59.073Z,2.40
2018-08-17T01:27:28.016Z,2.67
2018-08-17T01:29:57.027Z,2.40
2018-08-17T01:32:26.162Z,2.50
2018-08-17T01:34:54.825Z,3.00
2018-08-17T01:37:23.583Z,2.90
2018-08-17T01:39:52.255Z,2.80
2018-08-17T01:42:21.174Z,2.40
2018-08-17T01:44:49.970Z,2.90
2018-08-17T01:47:18.659Z,2.70
2018-08-17T01:49:47.701Z,2.60
2018-08-17T01:52:16.289Z,3.10
2018-08-17T01:54:45.270Z,3.00
2018-08-17T01:57:14.573Z,2.37
2018-08-17T01:59:43.637Z,2.97
2018-08-17T02:02:12.763Z,2.70
2018-08-17T02:04:41.922Z,2.90
2018-08-17T02:07:10.895Z,2.77
2018-08-17T02:09:39.816Z,2.87
2018-08-17T02:12:09.053Z,2.93
2018-08-17T02:14:37.872Z,2.80
2018-08-17T02:17:06.728Z,2.70
2018-08-17T02:19:35.550Z,2.70
2018-08-17T02:22:04.389Z,2.87
2018-08-17T02:24:33.081Z,3.40
2018-08-17T02:27:02.138Z,3.10
2018-08-17T02:29:30.769Z,3.00
2018-08-17T02:31:59.417Z,2.63
2018-08-17T02:34:28.317Z,3.10
2018-08-17T02:36:57.060Z,3.20
2018-08-17T02:39:25.776Z,2.87
2018-08-17T02:41:54.490Z,3.53
2018-08-17T02:44:23.238Z,3.00
2018-08-17T02:46:51.875Z,3.27
2018-08-17T02:49:20.579Z,3.37
2018-08-17T02:51:49.343Z,3.20
2018-08-17T02:54:18.215Z,3.30
2018-08-17T02:56:47.014Z,3.43
2018-08-17T02:59:16.055Z,3.00
2018-08-17T03:01:44.797Z,3.23
2018-08-17T03:04:13.583Z,3.57
2018-08-17T03:06:42.529Z,3.13
2018-08-17T03:09:12.369Z,3.33
2018-08-17T03:11:41.896Z,3.63
2018-08-17T03:14:10.606Z,3.73
2018-08-17T03:16:39.486Z,3.73
2018-08-17T03:19:08.626Z,3.77
2018-08-17T03:21:37.246Z,3.57
2018-08-17T03:24:06.191Z,3.90
2018-08-17T03:26:34.826Z,3.80
2018-08-17T03:29:03.774Z,3.93
2018-08-17T03:31:32.724Z,4.00
2018-08-17T03:34:01.531Z,4.63
2018-08-17T03:36:30.352Z,4.00
2018-08-17T03:38:58.953Z,3.83
2018-08-17T03:41:27.921Z,4.33
2018-08-17T03:43:56.682Z,4.07
2018-08-17T03:46:25.850Z,3.87
2018-08-17T03:48:54.528Z,4.63
2018-08-17T03:51:23.417Z,4.50
2018-08-17T03:53:52.146Z,4.17
2018-08-17T03:56:21.292Z,4.33
2018-08-17T03:58:49.958Z,4.30
2018-08-17T04:01:18.824Z,4.77
2018-08-17T04:03:47.520Z,4.53
2018-08-17T04:06:17.034Z,4.57
2018-08-17T04:08:45.698Z,5.03
2018-08-17T04:11:14.600Z,4.67
2018-08-17T04:13:43.592Z,4.20
2018-08-17T04:16:12.363Z,4.27
2018-08-17T04:18:45.586Z,4.60
2018-08-17T04:21:14.233Z,4.33
2018-08-17T04:23:42.877Z,4.57
2018-08-17T04:26:11.751Z,4.40
2018-08-17T04:28:40.758Z,4.30
2018-08-17T04:31:09.449Z,4.40
2018-08-17T04:33:38.321Z,4.93
2018-08-17T04:36:07.008Z,5.03
2018-08-17T04:38:35.774Z,5.50
2018-08-17T04:41:04.977Z,5.50
2018-08-17T04:43:33.686Z,6.30
2018-08-17T04:46:03.066Z,5.77
2018-08-17T04:48:32.226Z,5.70
2018-08-17T04:51:01.038Z,6.23
2018-08-17T04:53:29.797Z,5.97
2018-08-17T04:55:58.593Z,6.23
2018-08-17T04:58:28.197Z,5.63
2018-08-17T05:00:57.593Z,6.07
2018-08-17T05:03:26.430Z,6.53
2018-08-17T05:05:55.371Z,6.63
2018-08-17T05:08:24.096Z,6.30
2018-08-17T05:10:53.038Z,6.50
2018-08-17T05:13:21.706Z,5.83
2018-08-17T05:15:50.592Z,6.77
2018-08-17T05:18:19.481Z,5.73
2018-08-17T05:20:48.306Z,5.87
2018-08-17T05:23:17.292Z,6.47
2018-08-17T05:25:46.487Z,5.97
2018-08-17T05:28:15.259Z,6.37
2018-08-17T05:30:44.024Z,5.97
2018-08-17T05:33:12.810Z,5.67
2018-08-17T05:35:41.578Z,6.10
2018-08-17T05:38:10.435Z,5.93
2018-08-17T05:40:39.523Z,6.27
2018-08-17T05:43:08.615Z,6.03
2018-08-17T05:45:37.367Z,6.50
2018-08-17T05:48:06.190Z,5.70
2018-08-17T05:50:35.400Z,5.73
2018-08-17T05:53:04.920Z,5.90
2018-08-17T05:55:33.888Z,5.20
2018-08-17T05:58:02.968Z,5.50
2018-08-17T06:00:31.801Z,5.77
2018-08-17T06:03:00.677Z,6.30
2018-08-17T06:05:29.732Z,6.93
2018-08-17T06:07:58.765Z,6.50
2018-08-17T06:10:27.485Z,6.03
2018-08-17T06:12:56.547Z,5.87
2018-08-17T06:15:25.159Z,5.60
2018-08-17T06:17:54.103Z,6.10
2018-08-17T06:20:23.146Z,6.37
2018-08-17T06:22:52.187Z,5.83
2018-08-17T06:25:21.261Z,6.23
2018-08-17T06:27:50.234Z,6.07
2018-08-17T06:30:19.129Z,5.80
2018-08-17T06:32:48.089Z,5.83
2018-08-17T06:35:17.064Z,5.50
2018-08-17T06:37:46.043Z,5.90
2018-08-17T06:40:15.053Z,6.37
2018-08-17T06:42:43.805Z,5.80
2018-08-17T06:45:13.476Z,5.63
2018-08-17T06:47:42.440Z,6.10
2018-08-17T06:50:11.943Z,5.87
2018-08-17T06:52:41.716Z,5.83
2018-08-17T06:55:11.777Z,6.00
2018-08-17T06:57:40.940Z,5.60
2018-08-17T07:00:12.499Z,5.37
2018-08-17T07:02:41.532Z,5.50
2018-08-17T07:05:10.644Z,5.77
2018-08-17T07:07:40.221Z,5.37
2018-08-17T07:10:11.042Z,6.30
2018-08-17T07:12:40.460Z,6.17
2018-08-17T07:15:09.890Z,6.70
2018-08-17T07:17:39.030Z,6.30
2018-08-17T07:20:09.790Z,6.70
2018-08-17T07:22:38.595Z,6.57
2018-08-17T07:25:08.294Z,5.80
2018-08-17T07:27:37.206Z,6.53
2018-08-17T07:30:07.999Z,6.23
2018-08-17T07:32:36.599Z,6.13
2018-08-17T07:35:06.756Z,6.13
2018-08-17T07:37:35.766Z,6.50
2018-08-17T07:40:05.193Z,6.30
2018-08-17T07:42:34.681Z,5.30
2018-08-17T07:45:03.452Z,5.90
2018-08-17T07:47:32.209Z,5.67
2018-08-17T07:50:01.463Z,5.50
2018-08-17T07:52:30.571Z,5.77
2018-08-17T07:54:59.572Z,5.17
2018-08-17T07:57:28.515Z,5.30
2018-08-17T07:59:57.620Z,5.73
2018-08-17T08:02:26.279Z,5.23
2018-08-17T08:04:55.161Z,5.17
2018-08-17T08:07:23.806Z,4.97
2018-08-17T08:09:52.691Z,5.30
2018-08-17T08:12:21.736Z,5.07
2018-08-17T08:14:50.788Z,5.57
2018-08-17T08:17:19.768Z,5.20
2018-08-17T08:19:58.548Z,5.00
2018-08-17T08:22:27.744Z,5.10
2018-08-17T08:24:56.582Z,5.47
2018-08-17T08:27:25.267Z,5.23
2018-08-17T08:29:54.214Z,5.10
2018-08-17T08:32:22.906Z,5.20
2018-08-17T08:34:51.923Z,5.13
2018-08-17T08:37:21.070Z,4.90
2018-08-17T08:39:50.375Z,4.73
2018-08-17T08:42:19.119Z,5.37
2018-08-17T08:44:47.963Z,4.70
2018-08-17T08:47:16.792Z,4.80
2018-08-17T08:49:45.856Z,5.13
2018-08-17T08:52:14.486Z,4.80
2018-08-17T08:54:43.691Z,5.13
2018-08-17T08:57:12.766Z,4.47
2018-08-17T08:59:41.443Z,4.83
2018-08-17T09:02:10.239Z,5.00
2018-08-17T09:04:39.247Z,4.60
2018-08-17T09:07:08.675Z,4.87
2018-08-17T09:09:37.428Z,4.30
2018-08-17T09:12:06.109Z,4.23
2018-08-17T09:14:35.206Z,3.90
2018-08-17T09:17:03.945Z,4.63
2018-08-17T09:19:33.088Z,4.50
2018-08-17T09:22:02.229Z,4.20
2018-08-17T09:24:30.961Z,4.33
2018-08-17T09:26:59.749Z,4.17
2018-08-17T09:29:28.387Z,4.50
2018-08-17T09:31:57.108Z,4.03
2018-08-17T09:34:25.783Z,4.77
2018-08-17T09:36:54.591Z,4.13
2018-08-17T09:39:23.860Z,4.27
2018-08-17T09:41:52.640Z,4.03
2018-08-17T09:44:21.615Z,4.10
2018-08-17T09:46:50.698Z,3.90
2018-08-17T09:49:19.769Z,3.70
2018-08-17T09:51:48.695Z,3.80
2018-08-17T09:54:17.478Z,3.60
2018-08-17T09:56:46.295Z,3.80
2018-08-17T09:59:15.031Z,3.57
2018-08-17T10:01:49.055Z,4.23
2018-08-17T10:04:23.094Z,4.20
2018-08-17T10:06:57.015Z,3.63
2018-08-17T10:09:31.207Z,3.80
2018-08-17T10:11:59.833Z,3.60
2018-08-17T10:14:28.815Z,3.50
2018-08-17T10:16:58.013Z,3.70
2018-08-17T10:19:26.672Z,3.70
2018-08-17T10:21:56.427Z,3.30
2018-08-17T10:24:25.469Z,3.30
2018-08-17T10:26:55.204Z,3.30
2018-08-17T10:29:24.250Z,3.53
2018-08-17T10:31:53.226Z,3.70
2018-08-17T10:34:22.077Z,3.63
2018-08-17T10:36:50.898Z,3.70
2018-08-17T10:39:19.615Z,3.13
2018-08-17T10:41:48.337Z,3.57
2018-08-17T10:44:17.067Z,3.67
2018-08-17T10:46:45.942Z,3.87
2018-08-17T10:49:14.763Z,3.20
2018-08-17T10:51:43.442Z,3.23
2018-08-17T10:54:12.289Z,3.70
2018-08-17T10:56:41.155Z,3.17
2018-08-17T10:59:10.266Z,3.30
2018-08-17T11:01:43.755Z,3.17
2018-08-17T11:04:12.589Z,3.13
2018-08-17T11:06:41.343Z,2.93
2018-08-17T11:09:11.235Z,2.90
2018-08-17T11:11:41.985Z,3.00
2018-08-17T11:14:10.830Z,3.00
2018-08-17T11:16:39.685Z,2.70
2018-08-17T11:19:08.545Z,3.27
2018-08-17T11:21:37.210Z,2.67
2018-08-17T11:24:06.074Z,3.20
2018-08-17T11:26:35.068Z,2.90
2018-08-17T11:29:04.055Z,3.20
2018-08-17T11:31:32.794Z,2.77
2018-08-17T11:34:01.427Z,2.83
2018-08-17T11:36:30.175Z,2.97
2018-08-17T11:38:58.922Z,3.30
2018-08-17T11:41:27.869Z,3.60
2018-08-17T11:44:03.146Z,3.07
2018-08-17T11:46:32.240Z,3.73
2018-08-17T11:49:01.196Z,3.00
2018-08-17T11:51:30.123Z,3.40
2018-08-17T11:53:58.901Z,3.37
2018-08-17T11:56:27.620Z,3.23
2018-08-17T11:58:56.749Z,3.80
2018-08-17T12:01:27.762Z,3.63
2018-08-17T12:04:03.329Z,3.27
2018-08-17T12:06:32.080Z,3.10
2018-08-17T12:09:01.040Z,3.40
2018-08-17T12:11:29.843Z,3.93
2018-08-17T12:13:58.570Z,3.83
2018-08-17T12:16:27.581Z,3.37
2018-08-17T12:18:56.568Z,3.77
2018-08-17T12:21:25.240Z,3.47
2018-08-17T12:23:54.193Z,3.57
2018-08-17T12:26:23.042Z,3.70
2018-08-17T12:28:51.739Z,3.20
2018-08-17T12:31:20.623Z,3.60
2018-08-17T12:33:49.253Z,3.10
2018-08-17T12:36:18.073Z,3.40
2018-08-17T12:38:46.757Z,3.40
2018-08-17T12:41:15.531Z,3.73
2018-08-17T12:43:44.343Z,3.13
2018-08-17T12:46:13.244Z,3.60
2018-08-17T12:48:42.285Z,3.10
2018-08-17T12:51:11.339Z,3.57
2018-08-17T12:53:40.022Z,3.67
2018-08-17T12:56:08.953Z,3.30
2018-08-17T12:58:37.986Z,3.20
2018-08-17T13:01:06.709Z,3.30
2018-08-17T13:03:35.443Z,3.00
2018-08-17T13:06:04.254Z,3.10
2018-08-17T13:08:33.163Z,3.47
2018-08-17T13:11:01.978Z,3.67
2018-08-17T13:13:30.656Z,3.63
2018-08-17T13:16:06.701Z,3.30
2018-08-17T13:18:37.294Z,3.20
2018-08-17T13:21:06.378Z,2.80
2018-08-17T13:23:35.290Z,3.17
2018-08-17T13:26:04.420Z,3.30
2018-08-17T13:28:33.312Z,2.90
2018-08-17T13:31:02.176Z,3.27
2018-08-17T13:33:30.845Z,3.20
2018-08-17T13:35:59.918Z,3.20
2018-08-17T13:38:28.572Z,3.10
2018-08-17T13:40:57.427Z,2.90
2018-08-17T13:43:26.029Z,3.20
2018-08-17T13:45:54.767Z,3.00
2018-08-17T13:48:23.732Z,2.73
2018-08-17T13:50:52.331Z,3.43
2018-08-17T13:53:21.030Z,3.07
2018-08-17T13:55:49.622Z,2.90
2018-08-17T13:58:18.274Z,3.27
2018-08-17T14:00:47.389Z,3.10
2018-08-17T14:03:16.171Z,3.63
2018-08-17T14:05:45.027Z,3.23
2018-08-17T14:08:13.700Z,3.27
2018-08-17T14:10:42.559Z,3.00
2018-08-17T14:13:11.787Z,3.10
2018-08-17T14:15:40.409Z,2.67
2018-08-17T14:18:09.411Z,2.80
2018-08-17T14:20:38.510Z,3.07
2018-08-17T14:23:07.413Z,2.93
2018-08-17T14:25:36.323Z,2.90
2018-08-17T14:28:05.296Z,2.80
2018-08-17T14:30:34.165Z,2.60
2018-08-17T14:33:03.037Z,2.60
2018-08-17T14:35:31.864Z,2.90
2018-08-17T14:38:00.501Z,2.50
2018-08-17T14:40:29.255Z,3.10
2018-08-17T14:42:58.046Z,2.87
2018-08-17T14:45:26.693Z,2.60
2018-08-17T14:47:55.983Z,3.20
2018-08-17T14:50:24.911Z,2.90
2018-08-17T14:52:53.709Z,2.80
2018-08-17T14:55:22.467Z,2.63
2018-08-17T14:57:51.273Z,2.93
2018-08-17T15:00:20.157Z,2.40
2018-08-17T15:02:49.703Z,2.97
2018-08-17T15:05:19.171Z,2.43
2018-08-17T15:07:47.930Z,2.90
2018-08-17T15:10:16.725Z,2.33
2018-08-17T15:12:45.968Z,2.77
2018-08-17T15:15:15.077Z,2.77
2018-08-17T15:17:44.022Z,2.47
2018-08-17T15:20:13.529Z,2.10
2018-08-17T15:22:42.921Z,2.70
2018-08-17T15:25:12.250Z,2.67
2018-08-17T15:27:41.152Z,2.73
2018-08-17T15:30:11.854Z,2.63
2018-08-17T15:32:41.648Z,2.50
2018-08-17T15:35:11.189Z,2.47
2018-08-17T15:37:40.543Z,2.50
2018-08-17T15:40:11.708Z,2.30
2018-08-17T15:42:41.184Z,2.30
2018-08-17T15:45:10.886Z,2.67
2018-08-17T15:47:39.709Z,2.30
2018-08-17T15:50:14.675Z,2.23
2018-08-17T15:52:43.840Z,2.60
2018-08-17T15:55:13.170Z,2.47
2018-08-17T15:57:41.965Z,2.37
2018-08-17T16:00:12.947Z,2.50
2018-08-17T16:02:41.884Z,2.30
2018-08-17T16:05:10.746Z,1.90
2018-08-17T16:07:39.730Z,2.07
2018-08-17T16:10:10.633Z,2.10
2018-08-17T16:12:39.540Z,2.07
2018-08-17T16:15:09.598Z,2.33
2018-08-17T16:17:38.825Z,2.30
2018-08-17T16:20:09.084Z,2.00
2018-08-17T16:22:38.069Z,2.60
2018-08-17T16:25:07.955Z,2.30
2018-08-17T16:27:36.804Z,2.50
2018-08-17T16:30:06.989Z,2.57
2018-08-17T16:32:36.000Z,2.80
2018-08-17T16:35:04.871Z,2.60
2018-08-17T16:37:34.146Z,2.70
2018-08-17T16:40:02.974Z,2.97
2018-08-17T16:42:35.278Z,2.50
2018-08-17T16:45:05.124Z,2.60
2018-08-17T16:47:33.786Z,2.67
2018-08-17T16:50:02.863Z,2.97
2018-08-17T16:52:31.608Z,2.90
2018-08-17T16:55:00.288Z,2.63
2018-08-17T16:57:28.935Z,2.60
2018-08-17T16:59:57.829Z,2.50
2018-08-17T17:02:26.531Z,2.73
2018-08-17T17:04:55.315Z,2.67
2018-08-17T17:07:29.205Z,2.70
2018-08-17T17:09:58.762Z,2.73
2018-08-17T17:12:28.142Z,3.00
2018-08-17T17:15:05.187Z,2.90
2018-08-17T17:17:34.532Z,2.63
2018-08-17T17:20:03.720Z,3.20
2018-08-17T17:22:32.348Z,3.13
2018-08-17T17:25:06.218Z,2.57
2018-08-17T17:27:34.899Z,2.77
2018-08-17T17:30:03.826Z,2.73
2018-08-17T17:32:32.528Z,3.10
2018-08-17T17:35:01.389Z,2.70
2018-08-17T17:37:30.007Z,2.90
2018-08-17T17:39:58.974Z,3.17
2018-08-17T17:42:27.932Z,3.00
2018-08-17T17:44:56.606Z,3.30
2018-08-17T17:47:25.483Z,3.10
2018-08-17T17:49:54.170Z,2.97
2018-08-17T17:52:22.812Z,3.17
2018-08-17T17:54:51.562Z,3.03
2018-08-17T17:57:20.392Z,2.73
2018-08-17T18:00:03.617Z,3.00
2018-08-17T18:02:32.440Z,3.03
2018-08-17T18:05:01.166Z,2.70
2018-08-17T18:07:35.908Z,2.80
2018-08-17T18:10:04.722Z,2.70
2018-08-17T18:12:33.947Z,3.10
2018-08-17T18:15:03.230Z,2.70
2018-08-17T18:17:32.071Z,2.80
2018-08-17T18:20:00.770Z,2.90
2018-08-17T18:22:32.671Z,2.90
2018-08-17T18:25:06.726Z,2.93
2018-08-17T18:27:35.894Z,2.90
2018-08-17T18:30:05.395Z,2.63
2018-08-17T18:32:34.360Z,2.90
2018-08-17T18:35:03.483Z,2.40
2018-08-17T18:37:32.761Z,3.00
2018-08-17T18:40:01.529Z,2.73
2018-08-17T18:42:30.371Z,2.33
2018-08-17T18:44:59.168Z,2.67
2018-08-17T18:50:34.195Z,2.70
2018-08-17T18:53:06.650Z,2.70
2018-08-17T18:55:40.794Z,3.17
2018-08-17T18:58:09.500Z,2.67
2018-08-17T19:00:38.265Z,2.87
2018-08-17T19:03:07.248Z,2.50
2018-08-17T19:05:36.039Z,2.40
2018-08-17T19:08:05.125Z,2.70
2018-08-17T19:10:33.912Z,2.27
2018-08-17T19:13:02.822Z,2.40
2018-08-17T19:15:39.702Z,2.40
2018-08-17T19:18:08.373Z,2.70
2018-08-17T19:20:37.055Z,2.60
2018-08-17T19:23:05.954Z,2.30
2018-08-17T19:25:39.711Z,2.47
2018-08-17T19:28:08.440Z,2.40
2018-08-17T19:30:37.415Z,2.40
2018-08-17T19:33:09.535Z,2.47
2018-08-17T19:35:43.019Z,2.63
2018-08-17T19:38:12.281Z,2.80
2018-08-17T19:40:41.415Z,2.60
2018-08-17T19:43:10.211Z,2.17
2018-08-17T19:45:39.146Z,2.77
2018-08-17T19:48:08.214Z,2.53
2018-08-17T19:50:37.369Z,2.20
2018-08-17T19:53:06.817Z,2.60
2018-08-17T19:55:35.742Z,2.40
2018-08-17T19:58:04.607Z,2.57
2018-08-17T20:00:33.531Z,2.30
2018-08-17T20:03:02.370Z,2.60
2018-08-17T20:05:31.157Z,2.30
2018-08-17T20:08:00.019Z,2.50
2018-08-17T20:10:28.757Z,2.53
2018-08-17T20:12:57.534Z,2.70
2018-08-17T20:15:26.323Z,2.13
2018-08-17T20:17:55.017Z,2.00
2018-08-17T20:20:23.842Z,2.17
2018-08-17T20:22:58.095Z,2.43
2018-08-17T20:25:27.124Z,2.37
2018-08-17T20:27:56.105Z,2.33
2018-08-17T20:30:25.743Z,2.17
2018-08-17T20:32:54.718Z,2.37
2018-08-17T20:35:23.769Z,2.40
2018-08-17T20:37:53.889Z,2.50
2018-08-17T20:40:22.848Z,2.27
2018-08-17T20:42:51.831Z,2.50
2018-08-17T20:45:23.151Z,2.23
2018-08-17T20:47:52.862Z,1.90
2018-08-17T20:50:21.763Z,2.30
2018-08-17T20:52:56.614Z,2.20
2018-08-17T20:55:25.730Z,2.37
2018-08-17T20:57:56.044Z,2.37
2018-08-17T21:00:26.420Z,2.47
2018-08-17T21:02:55.819Z,2.10
2018-08-17T21:05:24.560Z,2.33
2018-08-17T21:07:53.335Z,2.50
2018-08-17T21:10:22.240Z,2.03
2018-08-17T21:12:51.368Z,2.27
2018-08-17T21:15:20.223Z,1.90
2018-08-17T21:17:49.486Z,2.10
2018-08-17T21:20:18.346Z,1.90
2018-08-17T21:22:47.243Z,2.10
2018-08-17T21:25:15.977Z,2.50
2018-08-17T21:27:44.858Z,2.20
2018-08-17T21:30:13.495Z,2.40
2018-08-17T21:32:42.591Z,2.20
2018-08-17T21:35:11.684Z,2.33
2018-08-17T21:37:40.687Z,2.30
2018-08-17T21:40:42.175Z,2.10
2018-08-17T21:43:11.024Z,2.43
2018-08-17T21:45:39.905Z,2.13
2018-08-17T21:48:15.230Z,2.20
2018-08-17T21:50:44.243Z,2.63
2018-08-17T21:53:13.355Z,2.50
2018-08-17T21:55:42.192Z,2.23
2018-08-17T21:58:10.917Z,2.23
2018-08-17T22:00:39.721Z,2.00
2018-08-17T22:03:16.048Z,2.03
2018-08-17T22:05:44.720Z,2.43
2018-08-17T22:08:13.444Z,2.83
2018-08-17T22:10:42.466Z,2.50
2018-08-17T22:13:22.419Z,2.40
2018-08-17T22:15:51.076Z,2.33
2018-08-17T22:18:20.080Z,2.40
2018-08-17T22:20:48.865Z,2.50
2018-08-17T22:23:17.646Z,2.40
2018-08-17T22:25:46.584Z,2.70
2018-08-17T22:28:15.866Z,2.43
2018-08-17T22:30:45.714Z,2.40
2018-08-17T22:33:14.991Z,2.37
2018-08-17T22:35:44.276Z,2.27
2018-08-17T22:38:13.299Z,2.27
2018-08-17T22:40:42.266Z,2.63
2018-08-17T22:43:10.888Z,2.63
2018-08-17T22:45:40.001Z,2.57
2018-08-17T22:48:09.305Z,2.60
2018-08-17T22:50:38.278Z,2.10
2018-08-17T22:53:07.062Z,2.33
2018-08-17T22:55:35.832Z,2.70
2018-08-17T22:58:04.750Z,2.37
2018-08-17T23:04:15.222Z,2.70
2018-08-17T23:06:44.628Z,2.90
2018-08-17T23:09:13.547Z,2.37
2018-08-17T23:11:42.391Z,2.43
2018-08-17T23:14:17.161Z,2.70
2018-08-17T23:16:46.968Z,2.40
2018-08-17T23:19:15.960Z,2.70
2018-08-17T23:21:44.993Z,2.50
2018-08-17T23:24:13.807Z,2.67
2018-08-17T23:26:42.828Z,2.60
2018-08-17T23:29:12.034Z,2.70
2018-08-17T23:31:40.810Z,2.70
2018-08-17T23:34:10.025Z,2.67
2018-08-17T23:36:39.229Z,2.83
2018-08-17T23:39:09.465Z,2.70
2018-08-17T23:41:38.555Z,2.50
2018-08-17T23:44:07.201Z,2.40
2018-08-17T23:46:36.100Z,2.20
2018-08-17T23:49:04.951Z,2.30
2018-08-17T23:51:33.885Z,2.43
2018-08-17T23:54:02.609Z,2.03
2018-08-17T23:56:31.615Z,3.53
2018-08-17T23:59:00.531Z,2.33
